sensor_id;sensor_type;location;lat;lon;timestamp;P1;durP1;ratioP1;P2;durP2;ratioP2
19183;SDS011;9724;51.194;6.856;2023-04-01T00:02:00;3.40;;;0.73;;
19183;SDS011;9724;51.194;6.856;2023-04-01T00:04:27;4.40;;;1.17;;
19183;SDS011;9724;51.194;6.856;2023-04-01T00:06:53;2.40;;;1.00;;
19183;SDS011;9724;51.194;6.856;2023-04-01T00:09:19;2.70;;;1.07;;
19183;SDS011;9724;51.194;6.856;2023-04-01T00:11:45;2.13;;;1.03;;
19183;SDS011;9724;51.194;6.856;2023-04-01T00:14:12;3.43;;;1.03;;
19183;SDS011;9724;51.194;6.856;2023-04-01T00:16:39;2.63;;;0.93;;
19183;SDS011;9724;51.194;6.856;2023-04-01T00:19:05;4.73;;;1.10;;
19183;SDS011;9724;51.194;6.856;2023-04-01T00:21:31;1.37;;;0.90;;
19183;SDS011;9724;51.194;6.856;2023-04-01T00:23:57;2.93;;;0.97;;
19183;SDS011;9724;51.194;6.856;2023-04-01T00:26:24;7.10;;;0.90;;
19183;SDS011;9724;51.194;6.856;2023-04-01T00:28:51;2.20;;;0.80;;
19183;SDS011;9724;51.194;6.856;2023-04-01T00:31:17;2.57;;;0.70;;
19183;SDS011;9724;51.194;6.856;2023-04-01T00:33:44;3.57;;;0.97;;
19183;SDS011;9724;51.194;6.856;2023-04-01T00:36:11;0.73;;;0.53;;
19183;SDS011;9724;51.194;6.856;2023-04-01T00:38:38;3.90;;;0.80;;
19183;SDS011;9724;51.194;6.856;2023-04-01T00:41:06;1.77;;;0.83;;
19183;SDS011;9724;51.194;6.856;2023-04-01T00:43:32;3.13;;;0.90;;
19183;SDS011;9724;51.194;6.856;2023-04-01T00:45:59;1.00;;;0.70;;
19183;SDS011;9724;51.194;6.856;2023-04-01T00:48:26;0.87;;;0.77;;
19183;SDS011;9724;51.194;6.856;2023-04-01T00:50:55;2.93;;;1.20;;
19183;SDS011;9724;51.194;6.856;2023-04-01T00:53:24;1.13;;;0.80;;
19183;SDS011;9724;51.194;6.856;2023-04-01T00:55:51;2.70;;;0.70;;
19183;SDS011;9724;51.194;6.856;2023-04-01T00:58:20;2.83;;;0.80;;
19183;SDS011;9724;51.194;6.856;2023-04-01T01:00:47;3.77;;;1.00;;
19183;SDS011;9724;51.194;6.856;2023-04-01T01:03:15;3.27;;;1.10;;
19183;SDS011;9724;51.194;6.856;2023-04-01T01:05:54;3.67;;;0.97;;
19183;SDS011;9724;51.194;6.856;2023-04-01T01:08:45;2.63;;;0.77;;
19183;SDS011;9724;51.194;6.856;2023-04-01T01:11:23;2.33;;;0.80;;
19183;SDS011;9724;51.194;6.856;2023-04-01T01:14:03;2.83;;;0.70;;
19183;SDS011;9724;51.194;6.856;2023-04-01T01:16:36;0.90;;;0.80;;
19183;SDS011;9724;51.194;6.856;2023-04-01T01:19:07;3.30;;;0.83;;
19183;SDS011;9724;51.194;6.856;2023-04-01T01:21:46;5.03;;;0.90;;
19183;SDS011;9724;51.194;6.856;2023-04-01T01:24:23;4.13;;;0.90;;
19183;SDS011;9724;51.194;6.856;2023-04-01T01:27:01;4.47;;;1.00;;
19183;SDS011;9724;51.194;6.856;2023-04-01T01:29:39;2.93;;;1.00;;
19183;SDS011;9724;51.194;6.856;2023-04-01T01:32:10;2.07;;;1.03;;
19183;SDS011;9724;51.194;6.856;2023-04-01T01:34:45;4.67;;;1.13;;
19183;SDS011;9724;51.194;6.856;2023-04-01T01:37:16;4.07;;;0.93;;
19183;SDS011;9724;51.194;6.856;2023-04-01T01:39:44;2.40;;;1.03;;
19183;SDS011;9724;51.194;6.856;2023-04-01T01:42:15;1.13;;;0.87;;
19183;SDS011;9724;51.194;6.856;2023-04-01T01:44:43;3.90;;;0.97;;
19183;SDS011;9724;51.194;6.856;2023-04-01T01:47:10;2.93;;;1.10;;
19183;SDS011;9724;51.194;6.856;2023-04-01T01:49:37;2.70;;;0.90;;
19183;SDS011;9724;51.194;6.856;2023-04-01T01:52:04;2.33;;;0.80;;
19183;SDS011;9724;51.194;6.856;2023-04-01T01:54:31;4.33;;;1.00;;
19183;SDS011;9724;51.194;6.856;2023-04-01T01:56:59;1.03;;;0.80;;
19183;SDS011;9724;51.194;6.856;2023-04-01T01:59:30;2.97;;;0.90;;
19183;SDS011;9724;51.194;6.856;2023-04-01T02:01:58;2.13;;;0.80;;
19183;SDS011;9724;51.194;6.856;2023-04-01T02:04:25;0.60;;;0.60;;
19183;SDS011;9724;51.194;6.856;2023-04-01T02:06:53;1.93;;;0.60;;
19183;SDS011;9724;51.194;6.856;2023-04-01T02:09:22;1.17;;;0.67;;
19183;SDS011;9724;51.194;6.856;2023-04-01T02:11:49;0.80;;;0.80;;
19183;SDS011;9724;51.194;6.856;2023-04-01T02:14:18;1.50;;;0.77;;
19183;SDS011;9724;51.194;6.856;2023-04-01T02:16:47;3.73;;;1.27;;
19183;SDS011;9724;51.194;6.856;2023-04-01T02:19:18;3.20;;;0.87;;
19183;SDS011;9724;51.194;6.856;2023-04-01T02:21:48;2.10;;;0.80;;
19183;SDS011;9724;51.194;6.856;2023-04-01T02:24:15;3.60;;;0.60;;
19183;SDS011;9724;51.194;6.856;2023-04-01T02:26:41;0.47;;;0.43;;
19183;SDS011;9724;51.194;6.856;2023-04-01T02:29:09;2.20;;;0.87;;
19183;SDS011;9724;51.194;6.856;2023-04-01T02:31:37;1.67;;;0.63;;
19183;SDS011;9724;51.194;6.856;2023-04-01T02:34:03;2.50;;;0.80;;
19183;SDS011;9724;51.194;6.856;2023-04-01T02:36:30;4.47;;;0.70;;
19183;SDS011;9724;51.194;6.856;2023-04-01T02:38:56;2.67;;;0.60;;
19183;SDS011;9724;51.194;6.856;2023-04-01T02:41:27;2.93;;;1.07;;
19183;SDS011;9724;51.194;6.856;2023-04-01T02:43:53;1.97;;;1.00;;
19183;SDS011;9724;51.194;6.856;2023-04-01T02:46:21;1.23;;;0.77;;
19183;SDS011;9724;51.194;6.856;2023-04-01T02:48:49;2.40;;;1.00;;
19183;SDS011;9724;51.194;6.856;2023-04-01T02:51:16;1.80;;;0.83;;
19183;SDS011;9724;51.194;6.856;2023-04-01T02:53:43;0.67;;;0.67;;
19183;SDS011;9724;51.194;6.856;2023-04-01T02:56:09;3.50;;;1.10;;
19183;SDS011;9724;51.194;6.856;2023-04-01T02:58:36;3.73;;;0.90;;
19183;SDS011;9724;51.194;6.856;2023-04-01T03:01:02;3.73;;;1.00;;
19183;SDS011;9724;51.194;6.856;2023-04-01T03:03:29;1.60;;;0.70;;
19183;SDS011;9724;51.194;6.856;2023-04-01T03:05:55;1.77;;;0.70;;
19183;SDS011;9724;51.194;6.856;2023-04-01T03:08:24;3.67;;;0.77;;
19183;SDS011;9724;51.194;6.856;2023-04-01T03:10:50;0.73;;;0.63;;
19183;SDS011;9724;51.194;6.856;2023-04-01T03:13:16;3.37;;;0.83;;
19183;SDS011;9724;51.194;6.856;2023-04-01T03:15:42;2.63;;;0.60;;
19183;SDS011;9724;51.194;6.856;2023-04-01T03:18:08;1.60;;;0.80;;
19183;SDS011;9724;51.194;6.856;2023-04-01T03:20:35;5.10;;;0.80;;
19183;SDS011;9724;51.194;6.856;2023-04-01T03:23:01;2.40;;;0.83;;
19183;SDS011;9724;51.194;6.856;2023-04-01T03:25:28;1.67;;;0.70;;
19183;SDS011;9724;51.194;6.856;2023-04-01T03:27:56;1.20;;;0.70;;
19183;SDS011;9724;51.194;6.856;2023-04-01T03:30:24;2.67;;;0.90;;
19183;SDS011;9724;51.194;6.856;2023-04-01T03:32:51;2.47;;;0.80;;
19183;SDS011;9724;51.194;6.856;2023-04-01T03:35:18;1.07;;;0.50;;
19183;SDS011;9724;51.194;6.856;2023-04-01T03:37:44;2.33;;;0.60;;
19183;SDS011;9724;51.194;6.856;2023-04-01T03:40:11;0.97;;;0.53;;
19183;SDS011;9724;51.194;6.856;2023-04-01T03:42:38;1.43;;;0.50;;
19183;SDS011;9724;51.194;6.856;2023-04-01T03:45:07;2.80;;;0.80;;
19183;SDS011;9724;51.194;6.856;2023-04-01T03:47:34;0.60;;;0.60;;
19183;SDS011;9724;51.194;6.856;2023-04-01T03:50:01;3.83;;;0.63;;
19183;SDS011;9724;51.194;6.856;2023-04-01T03:52:27;4.27;;;0.80;;
19183;SDS011;9724;51.194;6.856;2023-04-01T03:54:54;1.03;;;0.60;;
19183;SDS011;9724;51.194;6.856;2023-04-01T03:57:20;2.57;;;0.90;;
19183;SDS011;9724;51.194;6.856;2023-04-01T03:59:46;0.70;;;0.70;;
19183;SDS011;9724;51.194;6.856;2023-04-01T04:02:12;2.37;;;0.70;;
19183;SDS011;9724;51.194;6.856;2023-04-01T04:04:39;1.10;;;0.60;;
19183;SDS011;9724;51.194;6.856;2023-04-01T04:07:06;4.13;;;1.37;;
19183;SDS011;9724;51.194;6.856;2023-04-01T04:09:32;1.47;;;1.17;;
19183;SDS011;9724;51.194;6.856;2023-04-01T04:11:59;1.47;;;1.07;;
19183;SDS011;9724;51.194;6.856;2023-04-01T04:14:26;3.23;;;1.00;;
19183;SDS011;9724;51.194;6.856;2023-04-01T04:16:53;2.70;;;1.30;;
19183;SDS011;9724;51.194;6.856;2023-04-01T04:19:19;3.10;;;1.20;;
19183;SDS011;9724;51.194;6.856;2023-04-01T04:21:45;3.23;;;1.00;;
19183;SDS011;9724;51.194;6.856;2023-04-01T04:24:11;2.67;;;1.20;;
19183;SDS011;9724;51.194;6.856;2023-04-01T04:26:37;2.93;;;1.10;;
19183;SDS011;9724;51.194;6.856;2023-04-01T04:29:04;3.27;;;1.20;;
19183;SDS011;9724;51.194;6.856;2023-04-01T04:31:30;1.37;;;0.90;;
19183;SDS011;9724;51.194;6.856;2023-04-01T04:33:58;5.13;;;1.07;;
19183;SDS011;9724;51.194;6.856;2023-04-01T04:36:24;2.47;;;0.80;;
19183;SDS011;9724;51.194;6.856;2023-04-01T04:38:51;3.03;;;1.00;;
19183;SDS011;9724;51.194;6.856;2023-04-01T04:41:18;3.30;;;0.97;;
19183;SDS011;9724;51.194;6.856;2023-04-01T04:43:48;2.97;;;0.80;;
19183;SDS011;9724;51.194;6.856;2023-04-01T04:46:16;4.43;;;0.90;;
19183;SDS011;9724;51.194;6.856;2023-04-01T04:48:42;2.73;;;0.90;;
19183;SDS011;9724;51.194;6.856;2023-04-01T04:51:12;5.33;;;1.10;;
19183;SDS011;9724;51.194;6.856;2023-04-01T04:53:39;1.63;;;1.07;;
19183;SDS011;9724;51.194;6.856;2023-04-01T04:56:05;1.10;;;1.00;;
19183;SDS011;9724;51.194;6.856;2023-04-01T04:58:31;1.70;;;1.10;;
19183;SDS011;9724;51.194;6.856;2023-04-01T05:00:59;2.03;;;1.20;;
19183;SDS011;9724;51.194;6.856;2023-04-01T05:03:25;5.83;;;1.47;;
19183;SDS011;9724;51.194;6.856;2023-04-01T05:05:52;2.27;;;1.17;;
19183;SDS011;9724;51.194;6.856;2023-04-01T05:08:19;3.80;;;1.40;;
19183;SDS011;9724;51.194;6.856;2023-04-01T05:10:45;1.77;;;1.20;;
19183;SDS011;9724;51.194;6.856;2023-04-01T05:13:12;3.63;;;1.90;;
19183;SDS011;9724;51.194;6.856;2023-04-01T05:15:38;3.80;;;1.37;;
19183;SDS011;9724;51.194;6.856;2023-04-01T05:18:07;1.73;;;1.57;;
19183;SDS011;9724;51.194;6.856;2023-04-01T05:20:34;1.57;;;1.50;;
19183;SDS011;9724;51.194;6.856;2023-04-01T05:23:00;2.10;;;1.13;;
19183;SDS011;9724;51.194;6.856;2023-04-01T05:25:26;2.93;;;1.50;;
19183;SDS011;9724;51.194;6.856;2023-04-01T05:27:53;2.37;;;1.53;;
19183;SDS011;9724;51.194;6.856;2023-04-01T05:30:19;1.10;;;1.10;;
19183;SDS011;9724;51.194;6.856;2023-04-01T05:32:46;4.60;;;1.40;;
19183;SDS011;9724;51.194;6.856;2023-04-01T05:35:12;1.20;;;1.07;;
19183;SDS011;9724;51.194;6.856;2023-04-01T05:37:41;1.00;;;1.00;;
19183;SDS011;9724;51.194;6.856;2023-04-01T05:40:08;1.00;;;1.00;;
19183;SDS011;9724;51.194;6.856;2023-04-01T05:42:35;1.00;;;1.00;;
19183;SDS011;9724;51.194;6.856;2023-04-01T05:45:03;2.90;;;1.30;;
19183;SDS011;9724;51.194;6.856;2023-04-01T05:47:30;3.07;;;1.00;;
19183;SDS011;9724;51.194;6.856;2023-04-01T05:49:56;1.60;;;1.40;;
19183;SDS011;9724;51.194;6.856;2023-04-01T05:52:23;1.37;;;1.27;;
19183;SDS011;9724;51.194;6.856;2023-04-01T05:54:50;2.10;;;1.20;;
19183;SDS011;9724;51.194;6.856;2023-04-01T05:57:16;1.30;;;1.20;;
19183;SDS011;9724;51.194;6.856;2023-04-01T05:59:43;1.77;;;1.63;;
19183;SDS011;9724;51.194;6.856;2023-04-01T06:02:09;3.40;;;2.00;;
19183;SDS011;9724;51.194;6.856;2023-04-01T06:04:37;3.03;;;1.80;;
19183;SDS011;9724;51.194;6.856;2023-04-01T06:07:05;4.60;;;1.57;;
19183;SDS011;9724;51.194;6.856;2023-04-01T06:09:36;4.40;;;1.50;;
19183;SDS011;9724;51.194;6.856;2023-04-01T06:12:08;1.67;;;1.57;;
19183;SDS011;9724;51.194;6.856;2023-04-01T06:14:43;1.67;;;1.53;;
19183;SDS011;9724;51.194;6.856;2023-04-01T06:17:20;4.43;;;1.50;;
19183;SDS011;9724;51.194;6.856;2023-04-01T06:19:51;2.57;;;1.70;;
19183;SDS011;9724;51.194;6.856;2023-04-01T06:22:26;3.20;;;1.43;;
19183;SDS011;9724;51.194;6.856;2023-04-01T06:25:00;1.57;;;1.57;;
19183;SDS011;9724;51.194;6.856;2023-04-01T06:27:43;1.80;;;1.70;;
19183;SDS011;9724;51.194;6.856;2023-04-01T06:30:29;3.43;;;1.77;;
19183;SDS011;9724;51.194;6.856;2023-04-01T06:33:04;1.97;;;1.87;;
19183;SDS011;9724;51.194;6.856;2023-04-01T06:35:43;1.70;;;1.60;;
19183;SDS011;9724;51.194;6.856;2023-04-01T06:38:20;4.13;;;1.73;;
19183;SDS011;9724;51.194;6.856;2023-04-01T06:43:50;1.70;;;1.60;;
19183;SDS011;9724;51.194;6.856;2023-04-01T06:46:23;2.13;;;1.53;;
19183;SDS011;9724;51.194;6.856;2023-04-01T06:49:06;4.10;;;1.97;;
19183;SDS011;9724;51.194;6.856;2023-04-01T06:51:39;3.07;;;1.70;;
19183;SDS011;9724;51.194;6.856;2023-04-01T06:54:10;4.53;;;2.47;;
19183;SDS011;9724;51.194;6.856;2023-04-01T06:56:40;2.00;;;1.80;;
19183;SDS011;9724;51.194;6.856;2023-04-01T06:59:10;2.97;;;1.80;;
19183;SDS011;9724;51.194;6.856;2023-04-01T07:01:39;1.33;;;1.23;;
19183;SDS011;9724;51.194;6.856;2023-04-01T07:04:09;3.93;;;1.43;;
19183;SDS011;9724;51.194;6.856;2023-04-01T07:06:39;1.33;;;1.23;;
19183;SDS011;9724;51.194;6.856;2023-04-01T07:09:10;2.63;;;1.50;;
19183;SDS011;9724;51.194;6.856;2023-04-01T07:11:40;1.70;;;1.47;;
19183;SDS011;9724;51.194;6.856;2023-04-01T07:14:08;2.40;;;1.50;;
19183;SDS011;9724;51.194;6.856;2023-04-01T07:16:40;1.70;;;1.60;;
19183;SDS011;9724;51.194;6.856;2023-04-01T07:19:08;2.37;;;1.40;;
19183;SDS011;9724;51.194;6.856;2023-04-01T07:21:40;2.73;;;1.50;;
19183;SDS011;9724;51.194;6.856;2023-04-01T07:24:10;1.90;;;1.70;;
19183;SDS011;9724;51.194;6.856;2023-04-01T07:26:41;5.10;;;1.37;;
19183;SDS011;9724;51.194;6.856;2023-04-01T07:29:09;1.27;;;1.27;;
19183;SDS011;9724;51.194;6.856;2023-04-01T07:31:45;2.77;;;1.50;;
19183;SDS011;9724;51.194;6.856;2023-04-01T07:34:33;2.60;;;1.50;;
19183;SDS011;9724;51.194;6.856;2023-04-01T07:37:05;1.83;;;1.40;;
19183;SDS011;9724;51.194;6.856;2023-04-01T07:39:36;2.00;;;1.80;;
19183;SDS011;9724;51.194;6.856;2023-04-01T07:42:07;2.13;;;1.77;;
19183;SDS011;9724;51.194;6.856;2023-04-01T07:44:38;2.67;;;1.83;;
19183;SDS011;9724;51.194;6.856;2023-04-01T07:47:11;1.87;;;1.77;;
19183;SDS011;9724;51.194;6.856;2023-04-01T07:49:48;3.10;;;1.73;;
19183;SDS011;9724;51.194;6.856;2023-04-01T07:52:20;1.77;;;1.67;;
19183;SDS011;9724;51.194;6.856;2023-04-01T07:54:53;3.10;;;1.63;;
19183;SDS011;9724;51.194;6.856;2023-04-01T07:57:24;4.37;;;2.10;;
19183;SDS011;9724;51.194;6.856;2023-04-01T07:59:56;2.07;;;1.87;;
19183;SDS011;9724;51.194;6.856;2023-04-01T08:02:28;2.10;;;1.80;;
19183;SDS011;9724;51.194;6.856;2023-04-01T08:05:01;2.50;;;2.00;;
19183;SDS011;9724;51.194;6.856;2023-04-01T08:07:34;2.17;;;1.93;;
19183;SDS011;9724;51.194;6.856;2023-04-01T08:10:05;2.20;;;2.10;;
19183;SDS011;9724;51.194;6.856;2023-04-01T08:12:40;2.43;;;2.23;;
19183;SDS011;9724;51.194;6.856;2023-04-01T08:15:12;4.63;;;2.40;;
19183;SDS011;9724;51.194;6.856;2023-04-01T08:17:51;2.20;;;2.10;;
19183;SDS011;9724;51.194;6.856;2023-04-01T08:20:25;2.50;;;2.30;;
19183;SDS011;9724;51.194;6.856;2023-04-01T08:22:57;2.33;;;2.20;;
19183;SDS011;9724;51.194;6.856;2023-04-01T08:25:25;2.10;;;2.00;;
19183;SDS011;9724;51.194;6.856;2023-04-01T08:27:53;2.23;;;2.00;;
19183;SDS011;9724;51.194;6.856;2023-04-01T08:30:23;2.83;;;2.07;;
19183;SDS011;9724;51.194;6.856;2023-04-01T08:32:51;2.60;;;2.40;;
19183;SDS011;9724;51.194;6.856;2023-04-01T08:35:24;2.20;;;2.10;;
19183;SDS011;9724;51.194;6.856;2023-04-01T08:37:54;2.87;;;2.70;;
19183;SDS011;9724;51.194;6.856;2023-04-01T08:40:32;2.73;;;2.20;;
19183;SDS011;9724;51.194;6.856;2023-04-01T08:43:06;4.10;;;2.00;;
19183;SDS011;9724;51.194;6.856;2023-04-01T08:45:45;2.23;;;2.13;;
19183;SDS011;9724;51.194;6.856;2023-04-01T08:54:38;2.27;;;2.03;;
19183;SDS011;9724;51.194;6.856;2023-04-01T08:57:29;3.07;;;2.07;;
19183;SDS011;9724;51.194;6.856;2023-04-01T09:00:04;2.03;;;1.87;;
19183;SDS011;9724;51.194;6.856;2023-04-01T09:02:45;4.93;;;2.20;;
19183;SDS011;9724;51.194;6.856;2023-04-01T09:05:22;4.67;;;2.40;;
19183;SDS011;9724;51.194;6.856;2023-04-01T09:08:01;2.80;;;2.57;;
19183;SDS011;9724;51.194;6.856;2023-04-01T09:10:37;2.80;;;2.60;;
19183;SDS011;9724;51.194;6.856;2023-04-01T09:13:12;3.17;;;2.87;;
19183;SDS011;9724;51.194;6.856;2023-04-01T09:15:54;2.90;;;2.70;;
19183;SDS011;9724;51.194;6.856;2023-04-01T09:18:59;6.37;;;3.20;;
19183;SDS011;9724;51.194;6.856;2023-04-01T09:25:02;4.13;;;3.40;;
19183;SDS011;9724;51.194;6.856;2023-04-01T09:27:35;3.10;;;2.90;;
19183;SDS011;9724;51.194;6.856;2023-04-01T09:36:33;2.80;;;2.60;;
19183;SDS011;9724;51.194;6.856;2023-04-01T09:39:11;2.90;;;2.70;;
19183;SDS011;9724;51.194;6.856;2023-04-01T09:41:48;3.10;;;2.90;;
19183;SDS011;9724;51.194;6.856;2023-04-01T09:44:25;2.90;;;2.70;;
19183;SDS011;9724;51.194;6.856;2023-04-01T09:47:01;4.63;;;3.53;;
19183;SDS011;9724;51.194;6.856;2023-04-01T09:49:40;4.00;;;3.67;;
19183;SDS011;9724;51.194;6.856;2023-04-01T09:55:06;5.00;;;4.60;;
19183;SDS011;9724;51.194;6.856;2023-04-01T09:57:53;5.27;;;4.53;;
19183;SDS011;9724;51.194;6.856;2023-04-01T10:03:39;6.00;;;5.43;;
19183;SDS011;9724;51.194;6.856;2023-04-01T10:09:18;9.30;;;5.70;;
19183;SDS011;9724;51.194;6.856;2023-04-01T10:12:29;7.00;;;6.03;;
19183;SDS011;9724;51.194;6.856;2023-04-01T10:18:24;7.20;;;5.53;;
19183;SDS011;9724;51.194;6.856;2023-04-01T10:21:17;7.77;;;5.40;;
19183;SDS011;9724;51.194;6.856;2023-04-01T10:23:54;4.30;;;4.00;;
19183;SDS011;9724;51.194;6.856;2023-04-01T10:29:36;6.30;;;5.07;;
19183;SDS011;9724;51.194;6.856;2023-04-01T10:32:38;5.63;;;4.73;;
19183;SDS011;9724;51.194;6.856;2023-04-01T10:38:24;4.17;;;3.77;;
19183;SDS011;9724;51.194;6.856;2023-04-01T10:44:26;3.47;;;3.17;;
19183;SDS011;9724;51.194;6.856;2023-04-01T10:50:24;2.80;;;2.70;;
19183;SDS011;9724;51.194;6.856;2023-04-01T10:52:56;3.10;;;2.90;;
19183;SDS011;9724;51.194;6.856;2023-04-01T10:55:53;2.90;;;2.70;;
19183;SDS011;9724;51.194;6.856;2023-04-01T11:01:53;4.77;;;2.70;;
19183;SDS011;9724;51.194;6.856;2023-04-01T11:07:51;4.70;;;3.03;;
19183;SDS011;9724;51.194;6.856;2023-04-01T11:13:47;3.50;;;3.20;;
19183;SDS011;9724;51.194;6.856;2023-04-01T11:19:25;4.20;;;3.80;;
19183;SDS011;9724;51.194;6.856;2023-04-01T11:22:44;4.73;;;4.13;;
19183;SDS011;9724;51.194;6.856;2023-04-01T11:25:23;4.57;;;4.13;;
19183;SDS011;9724;51.194;6.856;2023-04-01T11:28:07;5.47;;;4.90;;
19183;SDS011;9724;51.194;6.856;2023-04-01T11:31:08;5.90;;;4.40;;
19183;SDS011;9724;51.194;6.856;2023-04-01T11:33:43;5.07;;;4.63;;
19183;SDS011;9724;51.194;6.856;2023-04-01T11:36:16;5.57;;;4.53;;
19183;SDS011;9724;51.194;6.856;2023-04-01T11:38:51;5.60;;;4.80;;
19183;SDS011;9724;51.194;6.856;2023-04-01T11:41:25;5.57;;;5.07;;
19183;SDS011;9724;51.194;6.856;2023-04-01T11:44:07;5.27;;;4.77;;
19183;SDS011;9724;51.194;6.856;2023-04-01T11:46:39;6.60;;;5.37;;
19183;SDS011;9724;51.194;6.856;2023-04-01T11:49:18;6.17;;;4.97;;
19183;SDS011;9724;51.194;6.856;2023-04-01T11:52:07;5.57;;;4.97;;
19183;SDS011;9724;51.194;6.856;2023-04-01T11:54:56;5.17;;;4.50;;
19183;SDS011;9724;51.194;6.856;2023-04-01T11:57:49;6.53;;;5.00;;
19183;SDS011;9724;51.194;6.856;2023-04-01T12:03:17;8.03;;;5.53;;
19183;SDS011;9724;51.194;6.856;2023-04-01T12:05:52;9.33;;;6.03;;
19183;SDS011;9724;51.194;6.856;2023-04-01T12:08:23;7.37;;;6.00;;
19183;SDS011;9724;51.194;6.856;2023-04-01T12:10:57;6.33;;;5.73;;
19183;SDS011;9724;51.194;6.856;2023-04-01T12:13:30;9.70;;;5.87;;
19183;SDS011;9724;51.194;6.856;2023-04-01T12:16:04;7.50;;;6.27;;
19183;SDS011;9724;51.194;6.856;2023-04-01T12:18:40;7.00;;;5.77;;
19183;SDS011;9724;51.194;6.856;2023-04-01T12:21:11;6.07;;;5.47;;
19183;SDS011;9724;51.194;6.856;2023-04-01T12:23:48;7.93;;;6.13;;
19183;SDS011;9724;51.194;6.856;2023-04-01T12:26:36;8.10;;;5.73;;
19183;SDS011;9724;51.194;6.856;2023-04-01T12:29:18;7.00;;;6.30;;
19183;SDS011;9724;51.194;6.856;2023-04-01T12:32:03;7.00;;;6.07;;
19183;SDS011;9724;51.194;6.856;2023-04-01T12:34:40;6.97;;;6.27;;
19183;SDS011;9724;51.194;6.856;2023-04-01T12:37:16;6.83;;;6.13;;
19183;SDS011;9724;51.194;6.856;2023-04-01T12:39:49;9.47;;;6.97;;
19183;SDS011;9724;51.194;6.856;2023-04-01T12:42:26;7.77;;;6.73;;
19183;SDS011;9724;51.194;6.856;2023-04-01T12:45:04;9.17;;;6.80;;
19183;SDS011;9724;51.194;6.856;2023-04-01T12:47:48;8.40;;;7.00;;
19183;SDS011;9724;51.194;6.856;2023-04-01T12:53:15;6.63;;;5.93;;
19183;SDS011;9724;51.194;6.856;2023-04-01T12:55:49;9.90;;;6.60;;
19183;SDS011;9724;51.194;6.856;2023-04-01T12:58:24;8.87;;;6.60;;
19183;SDS011;9724;51.194;6.856;2023-04-01T13:04:17;6.80;;;6.10;;
19183;SDS011;9724;51.194;6.856;2023-04-01T13:09:50;6.57;;;5.97;;
19183;SDS011;9724;51.194;6.856;2023-04-01T13:12:26;6.63;;;5.93;;
19183;SDS011;9724;51.194;6.856;2023-04-01T13:15:05;6.00;;;5.50;;
19183;SDS011;9724;51.194;6.856;2023-04-01T13:17:43;6.30;;;5.07;;
19183;SDS011;9724;51.194;6.856;2023-04-01T13:20:17;7.07;;;5.63;;
19183;SDS011;9724;51.194;6.856;2023-04-01T13:22:51;5.73;;;5.23;;
19183;SDS011;9724;51.194;6.856;2023-04-01T13:25:24;6.50;;;5.90;;
19183;SDS011;9724;51.194;6.856;2023-04-01T13:27:56;5.57;;;5.03;;
19183;SDS011;9724;51.194;6.856;2023-04-01T13:30:30;6.13;;;5.33;;
19183;SDS011;9724;51.194;6.856;2023-04-01T13:33:04;7.90;;;6.10;;
19183;SDS011;9724;51.194;6.856;2023-04-01T13:35:35;6.10;;;5.43;;
19183;SDS011;9724;51.194;6.856;2023-04-01T13:38:09;5.10;;;4.63;;
19183;SDS011;9724;51.194;6.856;2023-04-01T13:40:58;5.57;;;5.07;;
19183;SDS011;9724;51.194;6.856;2023-04-01T13:43:30;5.10;;;4.70;;
19183;SDS011;9724;51.194;6.856;2023-04-01T13:46:05;5.27;;;4.77;;
19183;SDS011;9724;51.194;6.856;2023-04-01T13:48:49;5.23;;;4.53;;
19183;SDS011;9724;51.194;6.856;2023-04-01T13:51:33;5.40;;;4.90;;
19183;SDS011;9724;51.194;6.856;2023-04-01T13:54:23;5.10;;;4.67;;
19183;SDS011;9724;51.194;6.856;2023-04-01T13:57:17;6.80;;;4.40;;
19183;SDS011;9724;51.194;6.856;2023-04-01T13:59:57;7.67;;;5.17;;
19183;SDS011;9724;51.194;6.856;2023-04-01T14:02:35;5.13;;;4.50;;
19183;SDS011;9724;51.194;6.856;2023-04-01T14:05:16;5.03;;;4.53;;
19183;SDS011;9724;51.194;6.856;2023-04-01T14:08:10;5.27;;;4.27;;
19183;SDS011;9724;51.194;6.856;2023-04-01T14:10:44;6.57;;;4.70;;
19183;SDS011;9724;51.194;6.856;2023-04-01T14:13:15;5.20;;;4.70;;
19183;SDS011;9724;51.194;6.856;2023-04-01T14:15:50;4.70;;;4.30;;
19183;SDS011;9724;51.194;6.856;2023-04-01T14:18:41;6.77;;;5.07;;
19183;SDS011;9724;51.194;6.856;2023-04-01T14:21:16;5.57;;;5.07;;
19183;SDS011;9724;51.194;6.856;2023-04-01T14:23:51;5.90;;;5.30;;
19183;SDS011;9724;51.194;6.856;2023-04-01T14:26:35;6.60;;;5.23;;
19183;SDS011;9724;51.194;6.856;2023-04-01T14:29:24;5.70;;;5.20;;
19183;SDS011;9724;51.194;6.856;2023-04-01T14:31:59;5.30;;;4.40;;
19183;SDS011;9724;51.194;6.856;2023-04-01T14:34:34;5.20;;;4.80;;
19183;SDS011;9724;51.194;6.856;2023-04-01T14:37:10;4.63;;;4.33;;
19183;SDS011;9724;51.194;6.856;2023-04-01T14:40:05;9.33;;;4.20;;
19183;SDS011;9724;51.194;6.856;2023-04-01T14:43:03;4.47;;;4.07;;
19183;SDS011;9724;51.194;6.856;2023-04-01T14:45:45;4.43;;;3.80;;
19183;SDS011;9724;51.194;6.856;2023-04-01T14:48:17;4.70;;;4.20;;
19183;SDS011;9724;51.194;6.856;2023-04-01T14:50:50;3.70;;;3.40;;
19183;SDS011;9724;51.194;6.856;2023-04-01T14:53:25;3.30;;;3.10;;
19183;SDS011;9724;51.194;6.856;2023-04-01T14:55:53;3.30;;;3.20;;
19183;SDS011;9724;51.194;6.856;2023-04-01T14:58:21;3.13;;;3.00;;
19183;SDS011;9724;51.194;6.856;2023-04-01T15:00:54;3.60;;;3.30;;
19183;SDS011;9724;51.194;6.856;2023-04-01T15:03:26;3.70;;;3.40;;
19183;SDS011;9724;51.194;6.856;2023-04-01T15:05:56;3.20;;;3.00;;
19183;SDS011;9724;51.194;6.856;2023-04-01T15:08:35;3.00;;;2.90;;
19183;SDS011;9724;51.194;6.856;2023-04-01T15:11:18;3.63;;;3.43;;
19183;SDS011;9724;51.194;6.856;2023-04-01T15:13:53;4.00;;;3.30;;
19183;SDS011;9724;51.194;6.856;2023-04-01T15:16:42;4.07;;;3.30;;
19183;SDS011;9724;51.194;6.856;2023-04-01T15:19:18;3.60;;;3.30;;
19183;SDS011;9724;51.194;6.856;2023-04-01T15:21:50;3.63;;;3.40;;
19183;SDS011;9724;51.194;6.856;2023-04-01T15:24:28;4.13;;;3.83;;
19183;SDS011;9724;51.194;6.856;2023-04-01T15:27:13;5.00;;;4.60;;
19183;SDS011;9724;51.194;6.856;2023-04-01T15:29:52;4.30;;;4.00;;
19183;SDS011;9724;51.194;6.856;2023-04-01T15:32:31;6.67;;;4.87;;
19183;SDS011;9724;51.194;6.856;2023-04-01T15:35:10;5.00;;;4.60;;
19183;SDS011;9724;51.194;6.856;2023-04-01T15:37:44;6.80;;;4.50;;
19183;SDS011;9724;51.194;6.856;2023-04-01T15:40:17;4.80;;;4.40;;
19183;SDS011;9724;51.194;6.856;2023-04-01T15:42:53;5.30;;;4.77;;
19183;SDS011;9724;51.194;6.856;2023-04-01T15:45:30;5.40;;;4.87;;
19183;SDS011;9724;51.194;6.856;2023-04-01T15:48:01;6.23;;;5.23;;
19183;SDS011;9724;51.194;6.856;2023-04-01T15:53:30;5.40;;;4.20;;
19183;SDS011;9724;51.194;6.856;2023-04-01T15:56:13;4.87;;;4.40;;
19183;SDS011;9724;51.194;6.856;2023-04-01T15:58:47;5.23;;;4.80;;
19183;SDS011;9724;51.194;6.856;2023-04-01T16:01:33;5.67;;;4.13;;
19183;SDS011;9724;51.194;6.856;2023-04-01T16:04:07;4.50;;;3.90;;
19183;SDS011;9724;51.194;6.856;2023-04-01T16:06:49;4.40;;;3.83;;
19183;SDS011;9724;51.194;6.856;2023-04-01T16:09:25;4.47;;;4.17;;
19183;SDS011;9724;51.194;6.856;2023-04-01T16:11:59;5.23;;;4.43;;
19183;SDS011;9724;51.194;6.856;2023-04-01T16:14:33;4.57;;;4.17;;
19183;SDS011;9724;51.194;6.856;2023-04-01T16:17:07;5.77;;;4.70;;
19183;SDS011;9724;51.194;6.856;2023-04-01T16:19:49;4.93;;;4.20;;
19183;SDS011;9724;51.194;6.856;2023-04-01T16:22:19;4.77;;;4.30;;
19183;SDS011;9724;51.194;6.856;2023-04-01T16:24:48;4.57;;;4.17;;
19183;SDS011;9724;51.194;6.856;2023-04-01T16:27:19;5.23;;;4.67;;
19183;SDS011;9724;51.194;6.856;2023-04-01T16:29:51;6.97;;;5.00;;
19183;SDS011;9724;51.194;6.856;2023-04-01T16:32:23;7.93;;;5.00;;
19183;SDS011;9724;51.194;6.856;2023-04-01T16:34:57;9.20;;;5.20;;
19183;SDS011;9724;51.194;6.856;2023-04-01T16:37:31;6.33;;;4.50;;
19183;SDS011;9724;51.194;6.856;2023-04-01T16:40:02;6.47;;;4.97;;
19183;SDS011;9724;51.194;6.856;2023-04-01T16:42:40;7.77;;;4.53;;
19183;SDS011;9724;51.194;6.856;2023-04-01T16:45:15;5.07;;;4.60;;
19183;SDS011;9724;51.194;6.856;2023-04-01T16:47:46;4.77;;;4.37;;
19183;SDS011;9724;51.194;6.856;2023-04-01T16:50:17;4.67;;;3.50;;